Time;durP1;ratioP1;P1;durP2;ratioP2;P2;SDS_P1;SDS_P2;PMS_P1;PMS_P2;Temp;Humidity;BMP_temperature;BMP_pressure;BME280_temperature;BME280_humidity;BME280_pressure;Samples;Min_cycle;Max_cycle;Signal;HPM_P1;HPM_P2
2023/10/03 00:02:03;;;;;;;24.70;12.25;;;;;;;15.85;98.90;100921.56;5071538;28;20209;-77
2023/10/03 00:04:28;;;;;;;24.08;12.00;;;;;;;15.87;98.70;100914.03;5073978;28;20042;-76
2023/10/03 00:06:55;;;;;;;21.88;11.00;;;;;;;15.84;99.06;100909.03;5068219;28;20025;-77
2023/10/03 00:09:20;;;;;;;25.55;11.93;;;;;;;15.84;99.19;100900.88;5071462;28;20041;-76
2023/10/03 00:11:46;;;;;;;23.77;11.68;;;;;;;15.83;99.32;100898.38;5071550;28;20036;-76
2023/10/03 00:14:15;;;;;;;26.25;12.43;;;;;;;15.79;99.43;100903.47;5069873;28;20043;-76
2023/10/03 00:16:40;;;;;;;23.58;10.93;;;;;;;15.81;99.30;100889.63;5071695;28;20491;-76
2023/10/03 00:19:06;;;;;;;27.75;12.02;;;;;;;15.84;99.13;100881.03;5071964;28;20032;-76
2023/10/03 00:21:32;;;;;;;27.23;12.18;;;;;;;15.86;99.38;100871.66;5071980;28;20029;-76
2023/10/03 00:23:58;;;;;;;25.70;11.85;;;;;;;15.91;99.03;100874.47;5071716;28;20031;-76
2023/10/03 00:26:24;;;;;;;28.88;12.00;;;;;;;15.96;98.61;100864.81;5071837;28;20029;-76
2023/10/03 00:28:51;;;;;;;24.58;11.82;;;;;;;16.07;98.11;100864.00;5072925;28;20051;-77
2023/10/03 00:31:17;;;;;;;24.08;11.73;;;;;;;16.19;97.40;100875.72;5035871;28;20087;-76
2023/10/03 00:33:43;;;;;;;25.75;12.80;;;;;;;16.30;96.91;100860.50;5058068;28;20029;-76
2023/10/03 00:36:25;;;;;;;22.70;11.80;;;;;;;16.35;96.31;100857.09;5070886;28;20036;-76
2023/10/03 00:38:56;;;;;;;24.08;12.13;;;;;;;16.40;96.22;100857.22;5060458;28;20021;-76
2023/10/03 00:41:22;;;;;;;25.40;12.43;;;;;;;16.49;95.43;100861.22;5058108;28;20043;-76
2023/10/03 00:44:04;;;;;;;22.98;12.05;;;;;;;16.56;95.38;100857.56;5056008;28;20074;-76
2023/10/03 00:46:30;;;;;;;25.17;12.50;;;;;;;16.65;94.92;100861.56;5050182;28;20029;-76
2023/10/03 00:48:56;;;;;;;24.52;11.98;;;;;;;16.74;94.09;100848.44;5048103;28;20029;-76
2023/10/03 00:51:22;;;;;;;26.13;12.52;;;;;;;16.75;93.80;100829.19;5050738;28;20033;-76
2023/10/03 00:53:50;;;;;;;28.10;12.80;;;;;;;16.78;94.13;100833.31;5033972;28;20029;-76
2023/10/03 00:56:16;;;;;;;26.40;13.07;;;;;;;16.85;93.44;100817.69;5032441;28;20017;-76
2023/10/03 00:58:43;;;;;;;28.15;12.30;;;;;;;16.95;92.94;100817.09;5045667;28;20031;-76
2023/10/03 01:01:09;;;;;;;28.50;12.00;;;;;;;17.01;92.52;100799.81;5052639;28;20029;-76
2023/10/03 01:03:39;;;;;;;25.55;12.07;;;;;;;17.05;92.11;100809.16;5051510;28;20031;-76
2023/10/03 01:06:09;;;;;;;29.27;12.40;;;;;;;17.12;91.62;100814.47;5054644;28;20563;-76
2023/10/03 01:08:41;;;;;;;26.90;12.90;;;;;;;17.12;91.91;100817.16;5054689;28;20324;-76
2023/10/03 01:11:13;;;;;;;29.42;13.07;;;;;;;17.22;91.02;100805.66;5054540;28;20024;-76
2023/10/03 01:13:38;;;;;;;24.02;12.30;;;;;;;17.30;90.84;100799.00;5019473;28;20021;-76
2023/10/03 01:16:05;;;;;;;26.92;13.20;;;;;;;17.33;90.13;100784.94;5017031;28;20040;-76
2023/10/03 01:18:31;;;;;;;27.33;12.45;;;;;;;17.37;90.35;100784.19;5052515;28;20048;-77
2023/10/03 01:21:05;;;;;;;25.08;12.50;;;;;;;17.35;90.17;100783.59;5047151;28;20059;-77
2023/10/03 01:23:34;;;;;;;25.58;12.70;;;;;;;17.35;90.22;100769.19;5052386;28;20054;-76
2023/10/03 01:26:04;;;;;;;26.38;12.57;;;;;;;17.40;89.60;100775.53;5050827;28;20029;-76
2023/10/03 01:28:30;;;;;;;27.30;13.23;;;;;;;17.41;89.61;100749.13;5052993;28;20388;-76
2023/10/03 01:30:55;;;;;;;27.13;13.15;;;;;;;17.40;89.65;100750.19;5051514;28;20538;-76
2023/10/03 01:33:26;;;;;;;28.88;14.00;;;;;;;17.40;89.31;100742.03;5053111;28;20473;-77
2023/10/03 01:35:55;;;;;;;27.85;12.68;;;;;;;17.43;89.26;100745.13;5020294;28;20027;-76
2023/10/03 01:38:24;;;;;;;26.10;12.48;;;;;;;17.41;89.36;100728.22;5050926;28;20108;-77
2023/10/03 01:40:51;;;;;;;26.90;12.65;;;;;;;17.41;89.03;100727.38;5052449;28;20025;-76
2023/10/03 01:43:16;;;;;;;26.50;12.52;;;;;;;17.46;88.82;100708.41;5050769;28;20036;-77
2023/10/03 01:45:41;;;;;;;24.70;12.90;;;;;;;17.46;88.99;100707.59;5050130;28;20041;-77
2023/10/03 01:48:08;;;;;;;26.48;12.82;;;;;;;17.44;88.76;100699.66;5053879;28;20396;-76
2023/10/03 01:50:38;;;;;;;25.42;12.35;;;;;;;17.42;88.95;100696.38;5049239;28;20025;-76
2023/10/03 01:53:07;;;;;;;26.52;12.02;;;;;;;17.44;88.71;100691.50;5032750;28;20025;-76
2023/10/03 01:55:33;;;;;;;25.20;12.75;;;;;;;17.46;88.35;100685.84;5051838;28;20040;-76
2023/10/03 01:57:59;;;;;;;23.40;12.40;;;;;;;17.50;88.39;100676.06;5049547;28;20032;-76
2023/10/03 02:00:28;;;;;;;26.85;11.80;;;;;;;17.51;87.99;100664.97;5050260;28;20041;-76
2023/10/03 02:03:00;;;;;;;27.63;12.88;;;;;;;17.52;87.83;100661.16;5054304;28;20070;-76
2023/10/03 02:05:27;;;;;;;28.48;12.75;;;;;;;17.53;87.73;100653.81;5036546;28;20041;-76
2023/10/03 02:07:54;;;;;;;25.77;12.70;;;;;;;17.55;87.76;100647.06;5053595;28;20059;-76
2023/10/03 02:10:19;;;;;;;26.25;12.77;;;;;;;17.54;87.80;100644.56;5055869;28;20029;-76
2023/10/03 02:12:50;;;;;;;26.15;12.73;;;;;;;17.58;87.42;100629.41;5053434;28;20036;-76
2023/10/03 02:15:23;;;;;;;21.50;11.35;;;;;;;17.53;87.61;100623.88;5053212;28;20040;-76
2023/10/03 02:17:55;;;;;;;25.75;12.00;;;;;;;17.52;87.68;100628.50;5055232;28;20025;-76
2023/10/03 02:20:21;;;;;;;24.38;11.65;;;;;;;17.56;87.57;100632.34;5055258;28;20480;-76
2023/10/03 02:22:54;;;;;;;26.58;11.48;;;;;;;17.60;86.95;100620.97;5054955;28;20029;-75
2023/10/03 02:25:28;;;;;;;24.02;10.93;;;;;;;17.63;86.69;100615.88;5052671;28;20045;-76
2023/10/03 02:27:54;;;;;;;25.00;11.35;;;;;;;17.70;86.27;100616.50;5051623;28;20033;-75
2023/10/03 02:30:23;;;;;;;27.30;12.90;;;;;;;17.72;86.23;100611.63;5066458;28;20036;-75
2023/10/03 02:32:50;;;;;;;24.33;11.75;;;;;;;17.77;85.90;100616.31;5075098;28;20082;-76
2023/10/03 02:35:15;;;;;;;25.20;11.50;;;;;;;17.75;85.87;100604.06;5077190;28;20051;-76
2023/10/03 02:37:41;;;;;;;24.15;11.02;;;;;;;17.77;85.89;100593.72;5073685;28;20103;-75
2023/10/03 02:40:08;;;;;;;22.67;10.52;;;;;;;17.83;85.20;100598.16;5077626;28;20643;-77
2023/10/03 02:42:38;;;;;;;21.27;10.57;;;;;;;17.88;85.08;100601.78;5074397;28;20035;-75
2023/10/03 02:45:04;;;;;;;22.23;11.50;;;;;;;17.93;84.47;100598.31;5073475;28;20111;-75
2023/10/03 02:47:30;;;;;;;23.35;11.52;;;;;;;17.95;84.59;100585.25;5072969;28;20070;-75
2023/10/03 02:49:55;;;;;;;21.55;10.73;;;;;;;17.90;84.75;100585.19;5073667;28;20415;-75
2023/10/03 02:52:21;;;;;;;22.40;10.75;;;;;;;17.88;84.82;100590.06;5072832;28;20029;-75
2023/10/03 02:54:48;;;;;;;25.73;11.43;;;;;;;17.88;84.81;100579.16;5077588;28;20063;-75
2023/10/03 02:57:15;;;;;;;23.60;11.30;;;;;;;17.86;85.09;100573.16;5073427;28;20461;-75
2023/10/03 02:59:44;;;;;;;23.17;10.68;;;;;;;17.88;84.93;100562.81;5072136;28;20469;-75
2023/10/03 03:02:14;;;;;;;22.77;10.75;;;;;;;17.89;84.78;100567.19;5072455;28;20107;-75
2023/10/03 03:04:43;;;;;;;25.58;11.25;;;;;;;17.94;84.65;100561.81;5073829;28;20077;-75
2023/10/03 03:07:09;;;;;;;20.23;10.20;;;;;;;18.00;84.08;100568.19;5073240;28;20032;-75
2023/10/03 03:09:36;;;;;;;24.17;10.82;;;;;;;18.02;83.91;100574.19;5074475;28;20036;-75
2023/10/03 03:12:06;;;;;;;23.88;10.45;;;;;;;18.08;83.44;100577.81;5055737;28;20550;-75
2023/10/03 03:14:31;;;;;;;23.65;11.05;;;;;;;18.09;83.58;100576.72;5072610;28;20452;-75
2023/10/03 03:17:04;;;;;;;22.30;10.70;;;;;;;18.07;83.46;100560.66;5075796;28;20523;-75
2023/10/03 03:19:29;;;;;;;25.65;11.13;;;;;;;18.11;83.19;100561.78;5065987;28;20039;-75
2023/10/03 03:21:57;;;;;;;22.20;10.43;;;;;;;18.12;83.01;100563.41;5076070;28;20410;-75
2023/10/03 03:24:33;;;;;;;26.20;10.98;;;;;;;18.12;83.06;100574.31;5073909;28;20040;-75
2023/10/03 03:26:59;;;;;;;21.70;10.43;;;;;;;18.14;83.20;100576.81;5072807;28;20032;-75
2023/10/03 03:29:35;;;;;;;20.55;10.02;;;;;;;18.12;82.95;100581.69;5073360;28;20048;-75
2023/10/03 03:32:07;;;;;;;20.95;9.80;;;;;;;18.12;82.95;100578.94;5071000;28;20020;-75
2023/10/03 03:34:33;;;;;;;20.58;10.60;;;;;;;18.10;83.13;100578.38;5066557;28;20137;-75
2023/10/03 03:37:21;;;;;;;25.38;10.95;;;;;;;18.10;83.54;100570.22;5072443;28;20047;-76
2023/10/03 03:39:57;;;;;;;22.13;10.15;;;;;;;18.00;83.83;100571.72;5080830;28;20028;-75
2023/10/03 03:42:22;;;;;;;23.45;9.90;;;;;;;18.06;83.46;100585.41;5073069;28;20040;-75
2023/10/03 03:44:49;;;;;;;21.45;10.02;;;;;;;18.09;83.36;100583.00;5072936;28;20066;-75
2023/10/03 03:47:15;;;;;;;23.75;10.32;;;;;;;18.14;82.99;100585.78;5073848;28;20032;-75
2023/10/03 03:49:40;;;;;;;18.00;9.32;;;;;;;18.20;82.56;100574.94;5074480;28;20020;-75
2023/10/03 03:52:11;;;;;;;20.20;9.82;;;;;;;18.27;82.22;100587.31;5074854;28;20024;-75
2023/10/03 03:54:36;;;;;;;20.45;10.05;;;;;;;18.31;82.15;100583.00;5072004;28;21569;-75
2023/10/03 03:57:02;;;;;;;19.92;10.10;;;;;;;18.42;81.50;100583.09;5072577;28;20031;-75
2023/10/03 03:59:27;;;;;;;24.15;10.10;;;;;;;18.43;81.24;100587.47;5072961;28;20219;-75
2023/10/03 04:01:54;;;;;;;22.85;10.52;;;;;;;18.48;80.93;100587.53;5071974;28;20031;-75
2023/10/03 04:04:20;;;;;;;21.30;9.98;;;;;;;18.53;80.78;100579.41;5074776;28;20028;-75
2023/10/03 04:06:46;;;;;;;19.45;9.80;;;;;;;18.56;80.61;100572.63;5075487;28;20066;-75
2023/10/03 04:09:14;;;;;;;23.17;10.32;;;;;;;18.56;80.76;100569.88;5074894;28;20041;-80
2023/10/03 04:11:41;;;;;;;23.58;9.80;;;;;;;18.58;80.70;100568.53;5073229;28;20396;-75
2023/10/03 04:14:07;;;;;;;21.70;10.27;;;;;;;18.54;81.37;100561.94;5073869;28;20036;-81
2023/10/03 04:16:38;;;;;;;20.83;9.90;;;;;;;18.51;81.36;100567.09;5071832;28;20040;-74
2023/10/03 04:19:05;;;;;;;22.63;10.55;;;;;;;18.50;81.28;100560.84;5071384;28;20621;-75
2023/10/03 04:21:32;;;;;;;23.15;10.02;;;;;;;18.51;81.63;100558.94;5071884;28;20024;-74
2023/10/03 04:23:59;;;;;;;22.27;9.65;;;;;;;18.45;81.89;100561.59;5072180;28;20111;-74
2023/10/03 04:26:25;;;;;;;20.42;9.48;;;;;;;18.47;81.73;100567.59;5068945;28;20056;-74
2023/10/03 04:28:51;;;;;;;22.13;10.35;;;;;;;18.48;82.00;100571.97;5072896;28;20031;-75
2023/10/03 04:31:16;;;;;;;20.90;9.65;;;;;;;18.49;81.88;100579.09;5073261;28;20430;-75
2023/10/03 04:33:43;;;;;;;21.35;10.38;;;;;;;18.49;82.46;100572.81;5078655;28;20457;-75
2023/10/03 04:36:09;;;;;;;22.00;9.75;;;;;;;18.46;82.47;100574.13;5073520;28;20028;-75
2023/10/03 04:38:40;;;;;;;21.23;9.85;;;;;;;18.38;82.98;100581.94;5073631;28;20032;-75
2023/10/03 04:41:09;;;;;;;20.70;9.80;;;;;;;18.31;83.19;100577.53;5072121;28;20507;-75
2023/10/03 04:43:34;;;;;;;21.27;9.80;;;;;;;18.29;83.76;100549.72;5072631;28;20021;-75
2023/10/03 04:46:01;;;;;;;20.10;9.23;;;;;;;18.41;83.43;100574.09;5073317;28;20598;-74
2023/10/03 04:48:28;;;;;;;20.10;9.45;;;;;;;18.44;83.49;100581.75;5082993;28;20028;-74
2023/10/03 04:50:53;;;;;;;18.70;8.98;;;;;;;18.46;83.52;100586.97;5077266;28;20365;-75
2023/10/03 04:53:18;;;;;;;18.58;9.13;;;;;;;18.43;83.84;100588.31;5074194;28;20032;-74
2023/10/03 04:55:44;;;;;;;20.25;9.55;;;;;;;18.44;84.27;100584.47;5072837;28;20131;-74
2023/10/03 04:58:10;;;;;;;25.08;9.85;;;;;;;18.49;84.32;100583.72;5071867;28;20031;-75
2023/10/03 05:00:36;;;;;;;18.67;9.15;;;;;;;18.49;84.69;100583.72;5071200;28;20056;-74
2023/10/03 05:03:04;;;;;;;21.02;8.80;;;;;;;18.51;84.46;100587.03;5073679;28;20017;-75
2023/10/03 05:05:32;;;;;;;16.92;8.98;;;;;;;18.48;84.56;100590.25;5072070;28;20036;-74
2023/10/03 05:07:58;;;;;;;19.65;8.80;;;;;;;18.51;84.94;100597.09;5071451;28;20031;-74
2023/10/03 05:10:23;;;;;;;18.98;9.02;;;;;;;18.43;85.09;100595.66;5073287;28;20032;-74
2023/10/03 05:12:51;;;;;;;18.23;8.73;;;;;;;18.43;85.57;100590.19;5071414;28;20023;-74
2023/10/03 05:15:16;;;;;;;17.05;8.32;;;;;;;18.40;85.51;100597.00;5071301;28;20142;-75
2023/10/03 05:17:45;;;;;;;17.45;8.80;;;;;;;18.40;85.48;100594.25;5072360;28;20028;-75
2023/10/03 05:20:17;;;;;;;20.40;9.50;;;;;;;18.33;85.49;100607.25;5071272;28;20485;-74
2023/10/03 05:22:42;;;;;;;19.70;8.68;;;;;;;18.33;85.65;100604.53;5071369;28;20074;-74
2023/10/03 05:25:11;;;;;;;17.50;8.57;;;;;;;18.36;85.40;100614.09;5073005;28;20098;-74
2023/10/03 05:27:37;;;;;;;17.92;7.95;;;;;;;18.39;85.12;100621.75;5066337;28;20028;-75
2023/10/03 05:30:05;;;;;;;17.20;8.20;;;;;;;18.33;85.68;100623.59;5075171;28;20089;-74
2023/10/03 05:32:36;;;;;;;15.88;7.93;;;;;;;18.30;85.89;100615.94;5072589;28;20021;-74
2023/10/03 05:35:02;;;;;;;15.82;7.97;;;;;;;18.32;85.70;100630.13;5072724;28;20024;-74
2023/10/03 05:37:29;;;;;;;14.65;7.40;;;;;;;18.31;85.64;100639.38;5071400;28;20108;-74
2023/10/03 05:40:20;;;;;;;15.68;7.60;;;;;;;18.33;85.56;100637.22;5074521;28;20021;-75
2023/10/03 05:42:49;;;;;;;13.27;7.05;;;;;;;18.32;84.75;100620.06;5070587;28;20041;-74
2023/10/03 05:45:15;;;;;;;12.27;6.15;;;;;;;18.43;83.67;100644.69;5068040;28;20043;-77
2023/10/03 05:47:45;;;;;;;13.50;6.15;;;;;;;18.42;83.36;100660.25;5073268;28;20028;-75
2023/10/03 05:50:21;;;;;;;10.65;5.82;;;;;;;18.41;83.29;100669.50;5070466;28;20439;-75
2023/10/03 05:52:47;;;;;;;11.38;5.88;;;;;;;18.42;82.87;100686.66;5072188;28;20372;-75
2023/10/03 05:55:12;;;;;;;12.95;5.70;;;;;;;18.33;83.12;100692.56;5074083;28;20037;-75
2023/10/03 05:57:40;;;;;;;10.20;5.63;;;;;;;18.31;83.55;100689.28;5077382;28;20119;-75
2023/10/03 06:00:08;;;;;;;13.63;5.50;;;;;;;18.16;83.55;100670.00;5064656;28;20115;-75
2023/10/03 06:02:39;;;;;;;8.10;4.53;;;;;;;18.18;81.80;100665.09;5073251;28;20028;-75
2023/10/03 06:05:06;;;;;;;7.10;3.97;;;;;;;18.17;80.90;100674.38;5076387;28;20025;-75
2023/10/03 06:07:32;;;;;;;10.93;4.50;;;;;;;18.12;80.91;100688.72;5077249;28;20033;-75
2023/10/03 06:09:58;;;;;;;7.72;4.10;;;;;;;18.07;81.19;100674.22;5074903;28;20036;-74
2023/10/03 06:12:24;;;;;;;8.63;4.35;;;;;;;18.04;81.48;100678.28;5075177;28;20024;-75
2023/10/03 06:14:50;;;;;;;6.00;3.95;;;;;;;18.07;81.46;100680.50;5071088;28;20040;-75
2023/10/03 06:17:19;;;;;;;7.38;4.05;;;;;;;18.14;81.27;100689.31;5072051;28;20020;-75
2023/10/03 06:19:44;;;;;;;9.27;4.35;;;;;;;18.15;81.48;100684.69;5074911;28;20054;-75
2023/10/03 06:22:12;;;;;;;7.88;4.03;;;;;;;18.20;81.57;100703.00;5072857;28;20507;-75
2023/10/03 06:24:38;;;;;;;6.55;4.13;;;;;;;18.30;81.21;100705.84;5073888;28;20506;-75
2023/10/03 06:27:05;;;;;;;11.35;4.50;;;;;;;18.14;81.89;100689.31;5073036;28;20063;-75
2023/10/03 06:29:30;;;;;;;12.15;4.57;;;;;;;18.27;81.77;100706.34;5070428;28;20529;-75
2023/10/03 06:31:56;;;;;;;7.47;4.10;;;;;;;18.20;81.48;100703.81;5070796;28;20024;-75
2023/10/03 06:34:25;;;;;;;8.00;4.53;;;;;;;18.20;81.76;100703.00;5069250;28;20033;-75
2023/10/03 06:36:50;;;;;;;8.18;4.75;;;;;;;18.15;81.99;100701.03;5070988;28;20226;-75
2023/10/03 06:39:15;;;;;;;9.00;4.70;;;;;;;18.18;82.35;100687.72;5071301;28;20498;-75
2023/10/03 06:41:41;;;;;;;8.82;4.70;;;;;;;18.26;82.18;100708.28;5072407;28;20020;-75
2023/10/03 06:44:08;;;;;;;7.55;4.65;;;;;;;18.24;82.34;100715.88;5070713;28;20476;-76
2023/10/03 06:46:38;;;;;;;7.60;4.40;;;;;;;18.20;82.15;100713.91;5070705;28;20032;-75
2023/10/03 06:49:04;;;;;;;10.43;4.78;;;;;;;18.17;82.06;100734.31;5071227;28;20119;-75
2023/10/03 06:51:29;;;;;;;6.47;4.65;;;;;;;18.21;82.06;100721.81;5074796;28;20032;-74
2023/10/03 06:53:54;;;;;;;8.05;4.78;;;;;;;18.23;82.63;100721.59;5074019;28;20038;-75
2023/10/03 06:56:20;;;;;;;8.07;4.50;;;;;;;18.31;81.77;100726.59;5074019;28;20032;-75
2023/10/03 06:58:48;;;;;;;7.82;4.43;;;;;;;18.25;81.97;100742.03;5076581;28;20455;-75
2023/10/03 07:01:15;;;;;;;7.40;4.53;;;;;;;18.12;82.25;100736.97;5074158;28;20103;-75
2023/10/03 07:03:40;;;;;;;6.50;4.15;;;;;;;18.24;82.32;100715.06;5074754;28;20032;-75
2023/10/03 07:06:06;;;;;;;7.57;4.32;;;;;;;18.29;82.20;100753.25;5074259;28;20032;-75
2023/10/03 07:08:33;;;;;;;6.55;4.70;;;;;;;18.28;82.40;100757.91;5073340;28;20056;-75
2023/10/03 07:10:59;;;;;;;5.30;4.40;;;;;;;18.23;82.64;100759.72;5074290;28;20029;-76
2023/10/03 07:13:26;;;;;;;9.02;4.85;;;;;;;18.16;83.07;100755.28;5074470;28;20024;-76
2023/10/03 07:15:51;;;;;;;9.35;5.05;;;;;;;18.17;83.22;100761.56;5072809;28;20557;-76
2023/10/03 07:18:17;;;;;;;8.63;4.68;;;;;;;18.27;83.06;100744.50;5074224;28;20037;-76
2023/10/03 07:20:43;;;;;;;9.18;5.32;;;;;;;18.30;82.86;100757.63;5073018;28;20048;-75
2023/10/03 07:23:08;;;;;;;5.90;4.90;;;;;;;18.31;83.38;100749.22;5073549;28;20118;-75
2023/10/03 07:25:33;;;;;;;10.30;5.25;;;;;;;18.39;83.46;100764.31;5072601;28;20086;-76
2023/10/03 07:27:59;;;;;;;9.77;5.50;;;;;;;18.26;84.05;100759.22;5074007;28;20438;-75
2023/10/03 07:30:25;;;;;;;12.95;4.85;;;;;;;18.37;83.67;100757.44;5072979;28;20045;-75
2023/10/03 07:32:51;;;;;;;7.88;4.90;;;;;;;18.49;83.32;100758.19;5072509;28;20031;-75
2023/10/03 07:35:17;;;;;;;9.85;5.10;;;;;;;18.42;83.45;100769.28;5072453;28;20048;-76
2023/10/03 07:37:42;;;;;;;6.72;4.78;;;;;;;18.39;83.89;100775.22;5073939;28;20531;-75
2023/10/03 07:40:08;;;;;;;7.13;4.90;;;;;;;18.40;83.05;100770.56;5073138;28;20496;-75
2023/10/03 07:42:34;;;;;;;9.90;5.10;;;;;;;18.43;83.00;100775.53;5071073;28;20089;-76
2023/10/03 07:45:05;;;;;;;7.72;5.20;;;;;;;18.39;83.46;100771.66;5073685;28;20025;-76
2023/10/03 07:47:31;;;;;;;8.70;5.05;;;;;;;18.39;83.84;100775.22;5072527;28;20432;-76
2023/10/03 07:49:59;;;;;;;9.52;5.00;;;;;;;18.32;84.12;100778.13;5073004;28;20026;-75
2023/10/03 07:52:27;;;;;;;9.48;5.10;;;;;;;18.30;84.02;100791.16;5072430;28;20025;-75
2023/10/03 07:54:56;;;;;;;7.25;5.05;;;;;;;18.38;83.94;100776.28;5073732;28;20044;-76
2023/10/03 07:57:25;;;;;;;9.30;5.32;;;;;;;18.45;83.43;100776.91;5077850;28;20029;-75
2023/10/03 07:59:51;;;;;;;8.68;4.97;;;;;;;18.57;82.84;100765.09;5073641;28;20043;-74
2023/10/03 08:02:17;;;;;;;9.82;5.28;;;;;;;18.62;82.68;100768.69;5072464;28;20469;-74
2023/10/03 08:04:43;;;;;;;9.05;5.30;;;;;;;18.62;82.49;100768.69;5072495;28;20031;-74
2023/10/03 08:07:21;;;;;;;9.85;5.20;;;;;;;18.45;83.40;100779.66;5065102;28;20025;-74
2023/10/03 08:09:47;;;;;;;8.40;5.53;;;;;;;18.67;82.94;100778.03;5077967;28;20024;-75
2023/10/03 08:12:12;;;;;;;9.57;5.30;;;;;;;18.57;82.60;100790.44;5072496;28;20024;-75
2023/10/03 08:14:39;;;;;;;7.22;5.00;;;;;;;18.63;82.10;100794.06;5075661;28;20021;-75
2023/10/03 08:17:04;;;;;;;9.82;4.68;;;;;;;18.60;82.30;100813.66;5073055;28;20063;-75
2023/10/03 08:19:30;;;;;;;7.97;4.95;;;;;;;18.44;82.74;100804.44;5072741;28;20021;-75
2023/10/03 08:21:55;;;;;;;12.00;5.30;;;;;;;18.41;83.34;100819.41;5078152;28;20378;-75
2023/10/03 08:24:28;;;;;;;6.95;5.00;;;;;;;18.54;82.95;100831.81;5065983;28;20554;-75
2023/10/03 08:26:59;;;;;;;11.18;5.00;;;;;;;18.39;83.22;100831.59;5072708;28;20099;-75
2023/10/03 08:29:25;;;;;;;8.15;4.70;;;;;;;18.35;83.52;100834.03;5065343;28;20042;-75
2023/10/03 08:31:57;;;;;;;11.52;4.68;;;;;;;18.41;82.95;100845.81;5072672;28;20385;-75
2023/10/03 08:34:29;;;;;;;7.35;4.22;;;;;;;18.46;82.37;100845.91;5072913;28;20385;-75
2023/10/03 08:36:58;;;;;;;5.25;3.92;;;;;;;18.32;82.95;100835.34;5078440;28;20020;-75
2023/10/03 08:39:24;;;;;;;6.20;4.28;;;;;;;18.17;83.84;100846.03;5065254;28;20024;-75
2023/10/03 08:42:34;;;;;;;7.38;4.15;;;;;;;18.16;83.65;100847.09;5072663;28;20099;-75
2023/10/03 08:45:00;;;;;;;5.90;4.30;;;;;;;17.94;85.82;100861.41;5068308;28;20260;-75
2023/10/03 08:47:34;;;;;;;7.60;4.43;;;;;;;17.80;88.35;100871.78;5070054;28;20594;-75
2023/10/03 08:50:10;;;;;;;7.90;4.55;;;;;;;17.75;89.75;100893.47;5054984;28;20028;-75
2023/10/03 08:52:47;;;;;;;9.20;5.00;;;;;;;17.54;91.55;100890.38;5073120;28;20032;-75
2023/10/03 08:55:15;;;;;;;6.55;5.03;;;;;;;17.46;92.20;100885.31;5072436;28;20045;-75
2023/10/03 08:57:40;;;;;;;7.55;5.00;;;;;;;17.47;92.86;100897.03;5071028;28;20016;-75
2023/10/03 09:00:09;;;;;;;6.20;4.72;;;;;;;17.48;93.03;100909.53;5073111;28;20105;-74
2023/10/03 09:02:45;;;;;;;7.03;5.10;;;;;;;17.51;93.03;100904.47;5073571;28;20025;-76
2023/10/03 09:05:20;;;;;;;6.57;4.13;;;;;;;17.51;92.60;100900.91;5072873;28;20033;-76
2023/10/03 09:07:46;;;;;;;6.97;4.20;;;;;;;17.63;92.20;100915.31;5079811;28;20134;-74
2023/10/03 09:10:22;;;;;;;7.40;4.57;;;;;;;17.52;93.54;100929.78;5073083;28;20035;-74
2023/10/03 09:13:03;;;;;;;;;;;;;;;17.63;91.87;100911.75;5066112;28;20021;-74
2023/10/03 09:15:37;;;;;;;7.38;3.95;;;;;;;17.70;92.36;100921.44;5072323;28;19939;-74
2023/10/03 09:18:10;;;;;;;6.13;3.60;;;;;;;17.86;91.13;100916.25;5065062;28;20036;-74
2023/10/03 09:20:36;;;;;;;7.50;3.88;;;;;;;18.16;89.92;100907.03;5071351;28;20040;-74
2023/10/03 09:23:07;;;;;;;6.05;3.38;;;;;;;18.43;88.70;100922.72;5072488;28;20019;-77
2023/10/03 09:25:41;;;;;;;5.75;4.00;;;;;;;18.66;87.27;100926.34;5072151;28;20052;-74
2023/10/03 09:28:07;;;;;;;4.95;3.90;;;;;;;18.37;88.16;100940.88;5070650;28;20483;-75
2023/10/03 09:30:38;;;;;;;5.35;3.58;;;;;;;18.23;89.65;100940.38;5072297;28;20466;-75
2023/10/03 09:33:11;;;;;;;6.65;3.42;;;;;;;18.29;88.03;100944.84;5071486;28;20020;-75
2023/10/03 09:35:40;;;;;;;9.20;3.67;;;;;;;18.17;88.65;100936.75;5071567;28;20112;-75
2023/10/03 09:38:09;;;;;;;7.18;3.70;;;;;;;18.19;89.71;100939.22;5072999;28;20098;-75
2023/10/03 09:40:48;;;;;;;6.63;3.10;;;;;;;18.29;89.71;100953.03;5071724;28;20028;-75
2023/10/03 09:43:16;;;;;;;4.30;2.53;;;;;;;17.98;92.44;100971.56;5076376;28;20033;-75
2023/10/03 09:45:41;;;;;;;3.63;1.90;;;;;;;17.42;97.52;100980.22;5077497;28;20021;-75
2023/10/03 09:48:07;;;;;;;4.82;1.88;;;;;;;17.17;99.22;100982.38;5070936;28;20037;-75
2023/10/03 09:50:33;;;;;;;3.10;1.35;;;;;;;16.79;100.00;100982.59;5072810;28;20074;-75
2023/10/03 09:53:01;;;;;;;2.13;1.33;;;;;;;16.67;100.00;100989.91;5073750;28;20062;-75
2023/10/03 09:55:41;;;;;;;2.08;1.40;;;;;;;16.62;100.00;101003.38;5074482;28;20048;-74
2023/10/03 09:58:08;;;;;;;4.35;1.70;;;;;;;16.62;100.00;101009.66;5069399;28;20086;-75
2023/10/03 10:00:40;;;;;;;2.95;1.50;;;;;;;16.50;100.00;101017.78;5072320;28;20032;-74
2023/10/03 10:03:19;;;;;;;5.35;1.80;;;;;;;16.43;100.00;101014.31;5053273;28;20442;-74
2023/10/03 10:06:12;;;;;;;2.83;1.70;;;;;;;16.35;100.00;101020.09;5071058;28;20016;-75
2023/10/03 10:08:48;;;;;;;5.90;2.30;;;;;;;16.59;100.00;101020.97;5078779;28;20040;-74
2023/10/03 10:11:14;;;;;;;4.32;2.45;;;;;;;16.88;100.00;101023.03;5074677;28;20079;-75
2023/10/03 10:13:45;;;;;;;7.05;2.80;;;;;;;16.91;100.00;101041.59;5072496;28;20503;-75
2023/10/03 10:18:45;;;;;;;4.25;2.63;;;;;;;16.96;100.00;101041.75;5076949;28;20403;-75
2023/10/03 10:21:38;;;;;;;3.45;2.65;;;;;;;17.02;100.00;101042.72;5077341;28;20032;-75
2023/10/03 10:24:15;;;;;;;5.13;2.95;;;;;;;17.14;100.00;101054.41;5081957;28;20077;-74
2023/10/03 10:26:48;;;;;;;4.00;2.47;;;;;;;17.17;99.59;101044.94;5075136;28;20078;-75
2023/10/03 10:29:19;;;;;;;4.82;2.40;;;;;;;17.29;99.63;101040.34;5073693;28;20051;-75
2023/10/03 10:31:44;;;;;;;2.58;1.70;;;;;;;17.51;96.81;101053.31;5073220;28;20078;-75
2023/10/03 10:34:22;;;;;;;3.15;1.40;;;;;;;17.40;93.32;101063.16;5079955;28;20037;-75
2023/10/03 10:36:57;;;;;;;2.30;1.42;;;;;;;17.30;91.85;101069.19;5074894;28;20024;-75
2023/10/03 10:39:25;;;;;;;2.50;1.10;;;;;;;17.11;91.58;101077.50;5080877;22;20507;-75
2023/10/03 10:42:09;;;;;;;2.75;1.20;;;;;;;16.96;92.58;101082.53;5074446;28;20032;-75
2023/10/03 10:44:34;;;;;;;2.67;1.10;;;;;;;16.92;92.94;101081.34;5068263;28;20059;-75
2023/10/03 10:47:06;;;;;;;2.88;1.08;;;;;;;16.76;92.26;101083.66;5074420;28;20016;-75
2023/10/03 10:49:33;;;;;;;2.75;0.75;;;;;;;16.48;91.83;101115.00;5066792;28;20031;-75
2023/10/03 10:52:09;;;;;;;2.88;0.95;;;;;;;15.86;95.78;101123.28;5075460;28;20032;-76
2023/10/03 10:54:36;;;;;;;;;;;;;;;15.60;99.18;101131.44;5067166;28;20043;-75
2023/10/03 10:57:06;;;;;;;1.40;0.68;;;;;;;15.51;100.00;101130.09;5074923;28;19916;-75
2023/10/03 10:59:35;;;;;;;2.83;0.60;;;;;;;15.43;100.00;101130.34;5076078;28;20093;-75
2023/10/03 11:02:01;;;;;;;2.33;0.70;;;;;;;15.45;100.00;101128.25;5078157;28;20024;-75
2023/10/03 11:04:27;;;;;;;3.38;0.90;;;;;;;15.46;100.00;101140.75;5076125;28;20119;-75
2023/10/03 11:06:53;;;;;;;4.47;0.88;;;;;;;15.47;100.00;101153.28;5074225;28;20476;-75
2023/10/03 11:09:23;;;;;;;3.13;0.90;;;;;;;15.52;100.00;101153.44;5074050;28;20115;-75
2023/10/03 11:11:50;;;;;;;3.55;1.23;;;;;;;15.69;100.00;101152.88;5073925;28;20464;-75
2023/10/03 11:14:29;;;;;;;3.42;1.00;;;;;;;15.93;99.66;101147.63;5074250;28;20043;-76
2023/10/03 11:16:56;;;;;;;1.75;0.90;;;;;;;16.00;98.76;101148.41;5074623;28;20153;-76
2023/10/03 11:19:21;;;;;;;2.15;0.70;;;;;;;16.11;96.55;101139.50;5074531;28;20044;-76
2023/10/03 11:21:48;;;;;;;2.92;0.95;;;;;;;16.14;95.37;101139.03;5066758;28;20032;-76
2023/10/03 11:24:15;;;;;;;1.92;0.70;;;;;;;16.02;96.30;101140.88;5038793;28;20484;-76
2023/10/03 11:26:54;;;;;;;2.08;0.75;;;;;;;16.18;95.29;101142.13;5073146;28;20043;-76